N6777F KMEM-
Flight info
| Callsign | N6777F |
|---|---|
| Flight time | N/A |
| Altitude | VFR/013 |
| Route | PATTERNS |
| Aircraft | BE36/L-DOV/C |
Departure
| Time | 2026-05-04 02:16 |
|---|---|
| Airport | Memphis International Airport (KMEM) |
Arrival
| Time | N/A |
|---|---|
| Airport | - |
| Time | Latitude | Longitude | Altitude | Speed | Heading |
|---|---|---|---|---|---|
| 2026-05-04 02:16 | 35.03315 | -89.99790 | 952 ft | 133 kts | 347° |
| 2026-05-04 02:16 | 35.04043 | -90.00215 | 1055 ft | 108 kts | 304° |
| 2026-05-04 02:16 | 35.04258 | -90.01132 | 1237 ft | 118 kts | 255° |
| 2026-05-04 02:17 | 35.03738 | -90.01898 | 1154 ft | 132 kts | 196° |
| 2026-05-04 02:17 | 35.03199 | -90.01293 | 1328 ft | 129 kts | 82° |
| 2026-05-04 02:17 | 35.03902 | -90.00625 | 970 ft | 132 kts | 18° |
| 2026-05-04 02:17 | 35.04768 | -90.00325 | 799 ft | 133 kts | 12° |
| 2026-05-04 02:18 | 35.05685 | -90.00048 | 686 ft | 136 kts | 12° |
| 2026-05-04 02:18 | 35.06573 | -89.99805 | 686 ft | 119 kts | 9° |
| 2026-05-04 02:18 | 35.07299 | -89.99355 | 736 ft | 117 kts | 64° |
| 2026-05-04 02:18 | 35.07102 | -89.98722 | 539 ft | 87 kts | 177° |
| 2026-05-04 02:19 | 35.06464 | -89.98759 | 569 ft | 81 kts | 183° |
| 2026-05-04 02:19 | 35.05888 | -89.98756 | 497 ft | 86 kts | 184° |
| 2026-05-04 02:19 | 35.05320 | -89.98747 | 396 ft | 77 kts | 186° |
| 2026-05-04 02:19 | 35.04787 | -89.98742 | 305 ft | 77 kts | 183° |
| 2026-05-04 02:20 | 35.04240 | -89.98729 | 385 ft | 88 kts | 182° |
| 2026-05-04 02:20 | 35.03514 | -89.98717 | 646 ft | 121 kts | 180° |
| 2026-05-04 02:20 | 35.02597 | -89.98672 | 906 ft | 141 kts | 179° |
| 2026-05-04 02:20 | 35.01643 | -89.98649 | 1025 ft | 117 kts | 197° |
| 2026-05-04 02:21 | 35.01456 | -89.99291 | 838 ft | 117 kts | 338° |
| 2026-05-04 02:21 | 35.01543 | -89.99470 | 630 ft | 75 kts | 221° |
| 2026-05-04 02:21 | 35.01349 | -89.99442 | 552 ft | 99 kts | 128° |
| 2026-05-04 02:21 | 35.01770 | -89.98961 | 880 ft | 124 kts | 343° |
| 2026-05-04 02:22 | 35.02703 | -89.99238 | 761 ft | 144 kts | 346° |
| 2026-05-04 02:22 | 35.03551 | -89.99606 | 722 ft | 126 kts | 325° |
| 2026-05-04 02:22 | 35.04345 | -90.00181 | 811 ft | 136 kts | 329° |
| 2026-05-04 02:22 | 35.05196 | -90.00756 | 887 ft | 141 kts | 326° |
| 2026-05-04 02:23 | 35.06082 | -90.01289 | 855 ft | 144 kts | 340° |
| 2026-05-04 02:23 | 35.07041 | -90.01665 | 891 ft | 145 kts | 342° |
| 2026-05-04 02:23 | 35.08054 | -90.01833 | 1065 ft | 157 kts | 17° |
| 2026-05-04 02:23 | 35.08531 | -90.00923 | 1246 ft | 128 kts | 108° |
| 2026-05-04 02:24 | 35.08179 | -89.99977 | 1032 ft | 126 kts | 132° |
| 2026-05-04 02:24 | 35.07480 | -89.99287 | 861 ft | 130 kts | 157° |
| 2026-05-04 02:24 | 35.06703 | -89.98942 | 662 ft | 108 kts | 171° |
| 2026-05-04 02:24 | 35.06040 | -89.98802 | 490 ft | 84 kts | 179° |
| 2026-05-04 02:25 | 35.05415 | -89.98756 | 400 ft | 91 kts | 182° |
| 2026-05-04 02:25 | 35.04823 | -89.98741 | 301 ft | 71 kts | 184° |
| 2026-05-04 02:25 | 35.04350 | -89.98731 | 313 ft | 76 kts | 169° |
| 2026-05-04 02:25 | 35.03939 | -89.98659 | 376 ft | 83 kts | 192° |
| 2026-05-04 02:26 | 35.03221 | -89.98697 | 565 ft | 119 kts | 182° |
| 2026-05-04 02:26 | 35.02341 | -89.98666 | 785 ft | 126 kts | 181° |
| 2026-05-04 02:26 | 35.01588 | -89.99031 | 924 ft | 118 kts | 230° |
| 2026-05-04 02:26 | 35.01408 | -89.99978 | 973 ft | 111 kts | 270° |
| 2026-05-04 02:27 | 35.01484 | -90.00947 | 953 ft | 121 kts | 271° |
| 2026-05-04 02:27 | 35.01658 | -90.02002 | 1103 ft | 135 kts | 287° |
| 2026-05-04 02:27 | 35.02424 | -90.02615 | 1115 ft | 142 kts | 353° |
| 2026-05-04 02:27 | 35.03457 | -90.02519 | 545 ft | 152 kts | 2° |
| 2026-05-04 02:28 | 35.04317 | -90.02517 | 455 ft | 108 kts | 355° |
| 2026-05-04 02:28 | 35.05134 | -90.02523 | 727 ft | 128 kts | 359° |
| 2026-05-04 02:28 | 35.06111 | -90.02470 | 976 ft | 149 kts | 359° |
| 2026-05-04 02:28 | 35.07214 | -90.02355 | 1069 ft | 167 kts | 2° |
| 2026-05-04 02:29 | 35.08332 | -90.02151 | 1060 ft | 152 kts | 19° |
| 2026-05-04 02:29 | 35.08990 | -90.01351 | 946 ft | 137 kts | 91° |
| 2026-05-04 02:29 | 35.08554 | -90.00399 | 925 ft | 127 kts | 139° |
| 2026-05-04 02:29 | 35.07908 | -89.99689 | 922 ft | 126 kts | 149° |
| 2026-05-04 02:30 | 35.07162 | -89.99188 | 710 ft | 117 kts | 161° |
| 2026-05-04 02:30 | 35.06380 | -89.98896 | 541 ft | 120 kts | 172° |
| 2026-05-04 02:30 | 35.05585 | -89.98759 | 407 ft | 106 kts | 181° |
| 2026-05-04 02:30 | 35.04895 | -89.98745 | 318 ft | 98 kts | 183° |
| 2026-05-04 02:31 | 35.04297 | -89.98737 | 300 ft | 74 kts | 186° |
| 2026-05-04 02:31 | 35.03961 | -89.98726 | 297 ft | 0 kts | 111° |
| 2026-05-04 02:31 | 35.03865 | -89.98724 | 300 ft | 32 kts | 178° |
| 2026-05-04 02:31 | 35.03685 | -89.98692 | 307 ft | 16 kts | 143° |
| 2026-05-04 02:32 | 35.03659 | -89.98624 | 307 ft | 4 kts | 89° |
| 2026-05-04 02:32 | 35.03660 | -89.98613 | 307 ft | 0 kts | 84° |
| 2026-05-04 02:33 | 35.03660 | -89.98612 | 307 ft | 3 kts | 83° |
| 2026-05-04 02:34 | 35.03739 | -89.98585 | 304 ft | 29 kts | 356° |
| 2026-05-04 02:34 | 35.03944 | -89.98590 | 296 ft | 30 kts | 360° |
| 2026-05-04 02:34 | 35.04151 | -89.98594 | 293 ft | 29 kts | 358° |
| 2026-05-04 02:34 | 35.04214 | -89.98467 | 295 ft | 22 kts | 105° |
| 2026-05-04 02:35 | 35.04135 | -89.98328 | 300 ft | 0 kts | 133° |